Time;durP1;ratioP1;P1;durP2;ratioP2;P2;SDS_P1;SDS_P2;PMS_P1;PMS_P2;Temp;Humidity;BMP_temperature;BMP_pressure;BME280_temperature;BME280_humidity;BME280_pressure;Samples;Min_cycle;Max_cycle;Signal;HPM_P1;HPM_P2
2023/06/09 00:02:47;;;;;;;5.80;4.47;;;;;;;18.66;100.00;99645.19;6271469;28;20049;-71
2023/06/09 00:05:49;;;;;;;8.00;4.05;;;;;;;18.58;100.00;99642.47;6272625;28;20405;-71
2023/06/09 00:08:50;;;;;;;6.05;4.25;;;;;;;18.55;100.00;99642.78;6270763;28;20051;-71
2023/06/09 00:11:53;;;;;;;5.18;4.10;;;;;;;18.56;100.00;99632.06;6270073;28;20056;-72
2023/06/09 00:14:57;;;;;;;5.72;3.92;;;;;;;18.60;100.00;99635.22;6272340;28;20057;-71
2023/06/09 00:18:02;;;;;;;8.90;4.15;;;;;;;18.59;100.00;99633.56;6271497;28;20473;-71
2023/06/09 00:21:03;;;;;;;4.80;4.10;;;;;;;18.58;100.00;99629.28;6271840;28;20068;-71
2023/06/09 00:24:04;;;;;;;9.93;4.37;;;;;;;18.57;100.00;99640.81;6273246;28;20120;-71
2023/06/09 00:27:10;;;;;;;5.95;4.05;;;;;;;18.56;100.00;99639.16;6273076;28;20151;-71
2023/06/09 00:30:14;;;;;;;6.32;4.60;;;;;;;18.53;100.00;99637.63;6272250;28;20484;-71
2023/06/09 00:33:17;;;;;;;5.68;4.10;;;;;;;18.59;100.00;99644.94;6271381;28;20060;-71
2023/06/09 00:36:18;;;;;;;5.88;3.97;;;;;;;18.58;100.00;99645.13;6271328;28;20147;-71
2023/06/09 00:39:19;;;;;;;5.00;4.17;;;;;;;18.52;100.00;99644.75;6272685;28;20550;-71
2023/06/09 00:42:19;;;;;;;4.73;3.87;;;;;;;18.47;100.00;99639.09;6272905;28;20053;-71
2023/06/09 00:45:22;;;;;;;4.78;3.88;;;;;;;18.43;100.00;99642.19;6271629;28;20045;-71
2023/06/09 00:48:23;;;;;;;7.15;4.47;;;;;;;18.36;100.00;99646.44;6271445;28;20071;-71
2023/06/09 00:51:24;;;;;;;7.27;4.47;;;;;;;18.43;100.00;99647.47;6271924;28;20048;-72
2023/06/09 00:54:26;;;;;;;4.93;4.07;;;;;;;18.36;100.00;99649.91;6272470;28;20061;-71
2023/06/09 00:57:29;;;;;;;7.45;4.43;;;;;;;18.33;100.00;99655.50;6272464;28;20644;-71
2023/06/09 01:00:31;;;;;;;11.27;4.68;;;;;;;18.35;100.00;99650.91;6270586;28;20107;-71
2023/06/09 01:03:32;;;;;;;7.70;5.00;;;;;;;18.31;100.00;99653.00;6272599;28;20053;-71
2023/06/09 01:06:45;;;;;;;6.88;4.68;;;;;;;18.27;100.00;99645.56;6272013;28;20061;-71
2023/06/09 01:09:57;;;;;;;6.40;4.45;;;;;;;18.32;100.00;99651.19;6270673;28;20056;-71
2023/06/09 01:13:22;;;;;;;5.88;4.15;;;;;;;18.38;100.00;99655.88;6270998;28;20487;-71
2023/06/09 01:16:30;;;;;;;5.63;4.55;;;;;;;18.37;100.00;99648.13;6263104;28;20048;-71
2023/06/09 01:19:35;;;;;;;5.93;4.22;;;;;;;18.27;100.00;99643.75;6270439;28;20171;-71
2023/06/09 01:22:50;;;;;;;7.18;3.97;;;;;;;18.16;100.00;99644.00;6271789;28;20052;-71
2023/06/09 01:25:52;;;;;;;5.97;4.57;;;;;;;18.17;100.00;99634.25;6270473;28;20049;-71
2023/06/09 01:28:55;;;;;;;;;;;;;;;18.16;100.00;99638.72;6272233;28;20053;-71
2023/06/09 01:31:57;;;;;;;4.82;3.80;;;;;;;18.15;100.00;99636.22;6221357;28;19964;-71
2023/06/09 01:34:58;;;;;;;6.10;4.30;;;;;;;18.13;100.00;99633.72;6220970;28;20554;-72
2023/06/09 01:38:00;;;;;;;7.13;4.38;;;;;;;18.16;100.00;99636.06;6221288;28;20058;-71
2023/06/09 01:41:01;;;;;;;5.50;4.60;;;;;;;18.12;100.00;99622.34;6254389;28;20057;-71
2023/06/09 01:44:01;;;;;;;4.90;4.22;;;;;;;18.10;100.00;99629.59;6272912;28;20059;-71
2023/06/09 01:47:03;;;;;;;5.87;4.10;;;;;;;18.08;100.00;99628.09;6275611;28;20049;-71
2023/06/09 01:50:24;;;;;;;7.53;4.35;;;;;;;18.03;100.00;99632.97;6275341;28;20476;-71
2023/06/09 01:53:53;;;;;;;5.60;4.03;;;;;;;18.00;100.00;99630.66;6276385;28;20060;-71
2023/06/09 01:57:02;;;;;;;6.47;5.03;;;;;;;18.01;100.00;99635.75;6274274;28;20302;-71
2023/06/09 02:00:05;;;;;;;9.13;5.60;;;;;;;18.03;100.00;99647.00;6276032;28;20045;-71
2023/06/09 02:03:07;;;;;;;10.70;5.90;;;;;;;18.05;100.00;99645.03;6274522;28;20059;-71
2023/06/09 02:06:15;;;;;;;7.60;5.28;;;;;;;18.07;100.00;99636.97;6275600;28;20045;-71
2023/06/09 02:09:16;;;;;;;6.50;5.13;;;;;;;17.97;100.00;99639.69;6275086;28;20103;-72
2023/06/09 02:12:17;;;;;;;11.60;5.20;;;;;;;17.94;100.00;99640.00;6274692;28;20486;-72
2023/06/09 02:15:19;;;;;;;6.75;5.28;;;;;;;17.90;100.00;99638.63;6274764;28;20060;-72
2023/06/09 02:18:21;;;;;;;9.00;5.82;;;;;;;18.00;100.00;99643.84;6275094;28;20068;-71
2023/06/09 02:21:22;;;;;;;6.43;4.50;;;;;;;18.02;100.00;99647.16;6275807;28;20135;-71
2023/06/09 02:24:27;;;;;;;6.50;4.70;;;;;;;17.95;100.00;99649.56;6274386;28;20059;-71
2023/06/09 02:27:33;;;;;;;6.15;4.75;;;;;;;17.96;100.00;99648.59;6275954;28;20060;-72
2023/06/09 02:30:34;;;;;;;7.38;5.07;;;;;;;17.86;100.00;99643.38;6273651;28;20045;-71
2023/06/09 02:33:35;;;;;;;6.88;5.13;;;;;;;17.88;100.00;99645.88;6274034;28;20448;-71
2023/06/09 02:36:37;;;;;;;7.60;5.18;;;;;;;17.89;100.00;99645.75;6273215;28;20048;-72
2023/06/09 02:39:38;;;;;;;5.60;4.85;;;;;;;17.87;100.00;99646.84;6273475;28;20056;-71
2023/06/09 02:42:39;;;;;;;6.57;5.40;;;;;;;17.91;100.00;99646.41;6273146;28;20048;-71
2023/06/09 02:45:40;;;;;;;6.43;5.22;;;;;;;17.92;100.00;99652.50;6273455;28;20056;-71
2023/06/09 02:48:41;;;;;;;6.20;5.38;;;;;;;17.90;100.00;99663.22;6274511;28;20060;-71
2023/06/09 02:51:42;;;;;;;9.65;5.45;;;;;;;18.02;100.00;99660.38;6273293;28;20467;-71
2023/06/09 02:54:43;;;;;;;8.45;4.55;;;;;;;17.95;100.00;99652.19;6272354;28;20560;-71
2023/06/09 02:57:45;;;;;;;7.73;4.90;;;;;;;18.03;100.00;99651.44;6272928;28;20528;-71
2023/06/09 03:00:46;;;;;;;9.10;5.75;;;;;;;18.08;100.00;99644.75;6272961;28;20106;-72
2023/06/09 03:03:47;;;;;;;7.80;4.80;;;;;;;18.11;100.00;99643.59;6272398;28;20053;-71
2023/06/09 03:06:50;;;;;;;9.38;5.80;;;;;;;18.24;100.00;99648.50;6274016;28;20770;-71
2023/06/09 03:09:51;;;;;;;6.97;4.85;;;;;;;18.29;100.00;99644.41;6274019;28;20083;-72
2023/06/09 03:12:52;;;;;;;8.43;4.47;;;;;;;18.42;100.00;99646.66;6273969;28;20508;-71
2023/06/09 03:15:52;;;;;;;8.25;4.70;;;;;;;18.46;100.00;99642.72;6273891;28;20049;-72
2023/06/09 03:18:54;;;;;;;7.40;5.03;;;;;;;18.42;100.00;99641.38;6274600;28;20488;-72
2023/06/09 03:21:57;;;;;;;6.22;4.05;;;;;;;18.45;100.00;99642.88;6274644;28;20087;-72
2023/06/09 03:24:58;;;;;;;6.50;3.90;;;;;;;18.43;100.00;99645.69;6273314;28;20428;-71
2023/06/09 03:27:58;;;;;;;8.40;4.43;;;;;;;18.49;100.00;99654.78;6272533;28;20179;-71
2023/06/09 03:30:59;;;;;;;9.90;3.85;;;;;;;18.42;100.00;99651.09;6274430;28;20072;-72
2023/06/09 03:34:02;;;;;;;15.65;3.55;;;;;;;18.37;100.00;99659.50;6273162;28;20041;-71
2023/06/09 03:37:04;;;;;;;6.53;3.53;;;;;;;18.25;100.00;99658.91;6272687;28;20056;-72
2023/06/09 03:40:07;;;;;;;6.85;2.97;;;;;;;18.27;100.00;99666.69;6273198;28;20091;-72
2023/06/09 03:43:11;;;;;;;2.47;2.28;;;;;;;18.31;100.00;99660.13;6273117;28;20049;-72
2023/06/09 03:46:14;;;;;;;3.70;2.20;;;;;;;18.28;100.00;99660.41;6273883;28;20136;-71
2023/06/09 03:49:17;;;;;;;4.30;2.25;;;;;;;18.24;100.00;99666.97;6273266;28;20044;-72
2023/06/09 03:52:21;;;;;;;2.50;1.73;;;;;;;18.16;100.00;99666.91;6273462;28;20053;-71
2023/06/09 03:55:24;;;;;;;2.78;1.75;;;;;;;18.11;100.00;99675.28;6271340;28;20106;-72
2023/06/09 03:58:30;;;;;;;2.80;1.63;;;;;;;18.09;100.00;99672.78;6273356;28;20049;-72
2023/06/09 04:01:31;;;;;;;2.03;1.30;;;;;;;18.10;100.00;99676.28;6272462;28;20049;-72
2023/06/09 04:04:31;;;;;;;11.05;1.67;;;;;;;18.15;100.00;99684.56;6272074;28;20053;-71
2023/06/09 04:07:32;;;;;;;1.52;1.40;;;;;;;18.09;100.00;99661.41;6271370;28;20049;-71
2023/06/09 04:10:33;;;;;;;3.30;1.55;;;;;;;18.15;100.00;99667.91;6273574;28;20049;-71
2023/06/09 04:13:33;;;;;;;3.00;1.63;;;;;;;18.20;100.00;99671.75;6272410;28;20063;-72
2023/06/09 04:16:37;;;;;;;4.10;1.85;;;;;;;18.31;100.00;99674.13;6271724;28;20056;-71
2023/06/09 04:19:37;;;;;;;2.70;1.38;;;;;;;18.38;100.00;99674.34;6272055;28;20102;-71
2023/06/09 04:22:47;;;;;;;5.73;1.77;;;;;;;18.27;100.00;99672.78;6272069;28;20477;-72
2023/06/09 04:25:49;;;;;;;4.25;1.80;;;;;;;18.36;100.00;99676.31;6270948;28;20056;-71
2023/06/09 04:28:53;;;;;;;6.10;1.92;;;;;;;18.37;100.00;99677.16;6272103;28;20056;-72
2023/06/09 04:31:58;;;;;;;2.85;1.95;;;;;;;18.39;100.00;99678.66;6272310;28;20473;-72
2023/06/09 04:35:00;;;;;;;3.10;1.90;;;;;;;18.47;100.00;99680.53;6270572;28;20396;-71
2023/06/09 04:38:01;;;;;;;4.07;2.10;;;;;;;18.45;100.00;99691.25;6251543;28;20413;-71
2023/06/09 04:41:03;;;;;;;1.60;1.20;;;;;;;18.50;100.00;99691.63;6244651;28;20052;-72
2023/06/09 04:44:05;;;;;;;4.20;1.85;;;;;;;18.35;100.00;99695.81;6243549;28;20053;-71
2023/06/09 04:47:07;;;;;;;2.92;2.15;;;;;;;18.41;100.00;99694.34;6254814;28;20579;-72
2023/06/09 04:50:08;;;;;;;1.73;1.63;;;;;;;18.56;100.00;99692.81;6271776;28;20055;-71
2023/06/09 04:53:11;;;;;;;4.63;2.10;;;;;;;18.62;100.00;99697.50;6270693;28;20132;-72
2023/06/09 04:56:16;;;;;;;2.78;1.70;;;;;;;18.53;100.00;99696.59;6265062;28;20075;-72
2023/06/09 04:59:16;;;;;;;3.15;2.22;;;;;;;18.40;100.00;99695.34;6252604;28;20106;-71
2023/06/09 05:02:18;;;;;;;6.43;2.10;;;;;;;18.54;100.00;99697.44;6234085;28;20391;-72
2023/06/09 05:05:20;;;;;;;3.78;2.13;;;;;;;18.51;100.00;99687.16;6241745;28;20144;-72
2023/06/09 05:08:23;;;;;;;;;;;;;;;18.45;100.00;99687.75;6256980;28;20485;-72
2023/06/09 05:11:25;;;;;;;3.85;2.28;;;;;;;18.39;100.00;99680.44;6270322;28;20265;-71
2023/06/09 05:14:25;;;;;;;3.37;2.10;;;;;;;18.38;100.00;99677.00;6270271;28;20049;-71
2023/06/09 05:17:26;;;;;;;4.55;2.17;;;;;;;18.60;100.00;99685.44;6259953;28;20049;-72
2023/06/09 05:20:27;;;;;;;4.03;2.40;;;;;;;18.62;100.00;99681.63;6268708;28;20044;-71
2023/06/09 05:23:28;;;;;;;2.80;1.92;;;;;;;18.56;100.00;99684.06;6270001;28;20132;-71
2023/06/09 05:26:29;;;;;;;3.97;2.30;;;;;;;18.49;100.00;99683.84;6270048;28;20049;-71
2023/06/09 05:29:29;;;;;;;4.03;2.23;;;;;;;18.38;100.00;99689.38;6268953;28;20497;-71
2023/06/09 05:32:30;;;;;;;6.75;2.60;;;;;;;18.35;100.00;99698.44;6271006;28;20084;-72
2023/06/09 05:35:32;;;;;;;3.17;2.15;;;;;;;18.42;100.00;99698.66;6269606;28;20148;-72
2023/06/09 05:38:34;;;;;;;4.32;2.25;;;;;;;18.35;100.00;99708.19;6239604;28;20062;-71
2023/06/09 05:41:36;;;;;;;4.73;2.57;;;;;;;18.40;100.00;99700.63;6286993;28;20095;-72
2023/06/09 05:44:37;;;;;;;;;;;;;;;18.47;100.00;99699.88;6230912;28;20128;-72
2023/06/09 05:47:40;;;;;;;9.10;2.40;;;;;;;18.48;100.00;99696.22;6246194;28;19944;-72
2023/06/09 05:50:43;;;;;;;4.07;2.65;;;;;;;18.66;100.00;99712.06;6252085;28;20148;-72
2023/06/09 05:53:44;;;;;;;3.40;2.10;;;;;;;18.62;100.00;99707.25;6246401;28;20129;-72
2023/06/09 05:56:48;;;;;;;5.40;2.47;;;;;;;18.84;100.00;99704.13;6247056;28;20107;-72
2023/06/09 05:59:49;;;;;;;7.22;2.38;;;;;;;18.89;100.00;99706.28;6270564;28;20122;-72
2023/06/09 06:02:53;;;;;;;4.73;2.60;;;;;;;19.04;100.00;99703.91;6269645;28;20477;-71
2023/06/09 06:05:54;;;;;;;1.95;1.75;;;;;;;19.15;100.00;99706.28;6269071;28;20459;-71
2023/06/09 06:08:55;;;;;;;7.90;2.00;;;;;;;19.28;100.00;99708.50;6243693;28;20089;-72
2023/06/09 06:11:56;;;;;;;2.80;1.90;;;;;;;19.35;100.00;99698.09;6258015;28;20491;-72
2023/06/09 06:14:56;;;;;;;4.05;2.17;;;;;;;19.31;100.00;99700.22;6244687;28;20199;-72
2023/06/09 06:17:59;;;;;;;3.67;2.43;;;;;;;19.17;100.00;99688.44;6270717;28;20067;-72
2023/06/09 06:21:00;;;;;;;3.47;2.33;;;;;;;19.15;100.00;99689.56;6270183;28;20187;-72
2023/06/09 06:24:04;;;;;;;2.50;2.00;;;;;;;19.20;100.00;99706.63;6260391;28;20057;-72
2023/06/09 06:27:05;;;;;;;2.42;2.15;;;;;;;19.25;100.00;99708.78;6220475;28;20141;-72
2023/06/09 06:30:08;;;;;;;4.85;2.38;;;;;;;19.19;100.00;99693.56;6223178;28;20471;-72
2023/06/09 06:33:11;;;;;;;5.53;2.35;;;;;;;19.15;100.00;99700.16;6252768;28;20065;-72
2023/06/09 06:36:12;;;;;;;4.53;2.50;;;;;;;19.20;100.00;99692.59;6255059;28;20049;-72
2023/06/09 06:39:13;;;;;;;3.07;2.30;;;;;;;19.11;100.00;99692.53;6242974;28;20049;-72
2023/06/09 06:42:14;;;;;;;3.53;2.38;;;;;;;19.12;100.00;99693.38;6227829;28;20062;-72
2023/06/09 06:45:16;;;;;;;3.83;2.53;;;;;;;19.20;100.00;99705.81;6241920;28;20076;-72
2023/06/09 06:48:19;;;;;;;;;;;;;;;19.32;100.00;99702.72;6256931;28;20041;-72
2023/06/09 06:51:22;;;;;;;3.03;2.20;;;;;;;19.26;100.00;99707.81;6245136;28;19925;-72
2023/06/09 06:54:25;;;;;;;3.67;2.42;;;;;;;19.44;100.00;99719.16;6267415;28;20088;-72
2023/06/09 06:57:27;;;;;;;5.72;3.35;;;;;;;19.57;100.00;99724.00;6257933;28;20509;-72
2023/06/09 07:00:27;;;;;;;;;;;;;;;19.75;100.00;99741.59;6263107;28;20049;-72
2023/06/09 07:03:28;;;;;;;5.00;2.78;;;;;;;19.78;100.00;99739.47;6249977;28;19947;-72
2023/06/09 07:06:32;;;;;;;3.43;2.77;;;;;;;19.81;100.00;99740.97;6249363;28;20064;-72
2023/06/09 07:09:33;;;;;;;5.03;3.00;;;;;;;20.09;100.00;99738.88;6246673;28;20068;-72
2023/06/09 07:12:36;;;;;;;4.85;2.75;;;;;;;20.27;100.00;99750.16;6250057;28;20049;-72
2023/06/09 07:15:38;;;;;;;3.35;2.63;;;;;;;20.46;100.00;99751.66;6240342;28;20084;-72
2023/06/09 07:18:39;;;;;;;;;;;;;;;20.64;100.00;99751.56;6250194;28;20115;-72
2023/06/09 07:21:40;;;;;;;4.65;2.50;;;;;;;20.85;100.00;99745.72;6252306;28;19932;-72
2023/06/09 07:24:41;;;;;;;3.17;2.30;;;;;;;21.14;100.00;99754.97;6236067;28;20065;-72
2023/06/09 07:27:44;;;;;;;2.93;2.33;;;;;;;21.13;100.00;99764.75;6265803;28;20053;-72
2023/06/09 07:42:08;;;;;;;3.65;2.45;;;;;;;20.57;100.00;99762.94;6317877;27;20400;-73
2023/06/09 07:45:10;;;;;;;3.08;2.30;;;;;;;20.67;100.00;99767.13;6291746;28;20048;-73
2023/06/09 07:48:10;;;;;;;2.67;2.40;;;;;;;20.65;100.00;99765.63;6291821;28;20106;-74
2023/06/09 07:51:13;;;;;;;3.67;2.43;;;;;;;20.71;100.00;99762.31;6293068;28;20045;-73
2023/06/09 07:54:13;;;;;;;2.75;2.42;;;;;;;20.70;100.00;99768.63;6292455;28;20060;-73
2023/06/09 07:57:15;;;;;;;8.20;2.67;;;;;;;20.71;100.00;99764.97;6293068;28;20078;-73
2023/06/09 08:00:16;;;;;;;2.83;2.53;;;;;;;20.66;100.00;99765.47;6276532;28;20042;-73
2023/06/09 08:03:17;;;;;;;4.90;2.93;;;;;;;20.86;100.00;99759.84;6285258;28;20056;-72
2023/06/09 08:06:18;;;;;;;7.50;3.10;;;;;;;20.98;100.00;99760.31;6282800;28;20088;-73
2023/06/09 08:09:19;;;;;;;7.97;3.15;;;;;;;20.96;100.00;99756.97;6271965;28;20094;-73
2023/06/09 08:12:20;;;;;;;3.70;2.50;;;;;;;20.63;100.00;99757.84;6279606;28;20048;-73
2023/06/09 08:15:21;;;;;;;3.07;2.70;;;;;;;20.60;100.00;99754.69;6287439;28;20048;-73
2023/06/09 08:18:22;;;;;;;2.93;2.53;;;;;;;20.64;100.00;99756.84;6281034;28;20485;-73
2023/06/09 08:21:22;;;;;;;4.03;2.83;;;;;;;20.57;100.00;99739.09;6270027;28;20053;-73
2023/06/09 08:24:23;;;;;;;3.67;2.83;;;;;;;20.50;100.00;99750.34;6272718;28;20172;-73
2023/06/09 08:27:24;;;;;;;4.17;3.10;;;;;;;20.47;100.00;99745.41;6281640;28;20090;-73
2023/06/09 08:30:25;;;;;;;3.65;2.60;;;;;;;20.66;100.00;99746.09;6291346;28;20052;-73
2023/06/09 08:33:28;;;;;;;5.93;3.47;;;;;;;20.66;100.00;99746.91;6289798;28;20088;-74
2023/06/09 08:36:28;;;;;;;3.90;2.85;;;;;;;20.81;100.00;99747.06;6289603;28;20099;-73
2023/06/09 08:39:29;;;;;;;4.70;3.67;;;;;;;20.80;100.00;99750.72;6281897;28;20045;-73
2023/06/09 08:42:31;;;;;;;11.73;3.10;;;;;;;20.89;100.00;99751.53;6272127;28;20456;-74
2023/06/09 08:45:35;;;;;;;;;;;;;;;20.88;100.00;99749.91;6268769;28;20471;-73
2023/06/09 08:48:59;;;;;;;3.80;2.95;;;;;;;20.90;100.00;99753.19;6267618;28;19924;-73
2023/06/09 08:52:03;;;;;;;6.22;3.25;;;;;;;20.82;100.00;99748.72;6273870;28;20063;-74
2023/06/09 08:55:04;;;;;;;6.50;3.13;;;;;;;20.61;100.00;99751.03;6264889;28;20440;-74
2023/06/09 08:58:05;;;;;;;3.53;2.75;;;;;;;20.30;100.00;99747.22;6271966;28;20385;-74
2023/06/09 09:01:06;;;;;;;4.03;2.60;;;;;;;20.32;100.00;99747.03;6262940;28;20049;-74
2023/06/09 09:04:07;;;;;;;2.97;2.33;;;;;;;20.32;100.00;99739.94;6261279;28;20056;-74
2023/06/09 09:07:09;;;;;;;4.10;2.43;;;;;;;20.17;100.00;99733.59;6272437;28;20067;-74
2023/06/09 09:10:11;;;;;;;5.07;2.63;;;;;;;20.20;100.00;99730.63;6264296;28;20045;-74
2023/06/09 09:13:12;;;;;;;3.53;2.17;;;;;;;20.38;100.00;99732.28;6270308;28;20053;-74
2023/06/09 09:16:16;;;;;;;3.20;2.65;;;;;;;20.54;100.00;99735.78;6275101;28;20092;-74
2023/06/09 09:19:30;;;;;;;3.22;2.53;;;;;;;20.65;100.00;99732.00;6273190;28;20056;-73
2023/06/09 09:22:30;;;;;;;3.60;2.45;;;;;;;20.81;100.00;99727.69;6274848;28;20072;-74
2023/06/09 09:25:31;;;;;;;3.50;2.73;;;;;;;20.87;100.00;99725.19;6274609;28;20075;-73
2023/06/09 09:28:39;;;;;;;2.93;2.17;;;;;;;20.83;100.00;99726.50;6273229;28;20069;-73
2023/06/09 09:31:41;;;;;;;2.63;2.30;;;;;;;20.91;100.00;99723.84;6273469;28;20488;-73
2023/06/09 09:34:46;;;;;;;3.65;2.60;;;;;;;20.75;100.00;99715.09;6271714;28;20132;-73
2023/06/09 09:37:47;;;;;;;3.90;2.17;;;;;;;20.66;100.00;99722.22;6271973;28;20119;-74
2023/06/09 09:40:50;;;;;;;4.67;2.47;;;;;;;20.51;100.00;99725.53;6272934;28;20495;-73
2023/06/09 09:43:56;;;;;;;3.70;2.08;;;;;;;20.11;100.00;99740.38;6273135;28;20134;-73
2023/06/09 09:46:59;;;;;;;11.57;3.35;;;;;;;19.91;100.00;99753.09;6270915;28;20045;-76
2023/06/09 09:50:02;;;;;;;3.47;2.35;;;;;;;19.78;100.00;99767.75;6271635;28;20048;-76
2023/06/09 09:53:04;;;;;;;6.40;3.00;;;;;;;19.39;100.00;99765.56;6272106;28;20057;-76
2023/06/09 09:56:07;;;;;;;9.23;3.08;;;;;;;19.35;100.00;99761.59;6273005;28;20052;-76
2023/06/09 09:59:10;;;;;;;5.20;2.75;;;;;;;19.22;100.00;99749.63;6271316;28;20045;-76
2023/06/09 10:02:17;;;;;;;4.20;2.78;;;;;;;19.17;100.00;99749.28;6269070;28;20099;-75
2023/06/09 10:05:19;;;;;;;6.78;2.78;;;;;;;19.22;100.00;99754.09;6266334;28;20049;-76
2023/06/09 10:08:21;;;;;;;;;;;;;;;19.17;100.00;99753.72;6270782;28;20041;-75
2023/06/09 10:11:22;;;;;;;4.75;2.22;;;;;;;19.09;100.00;99757.16;6270694;28;19927;-75
2023/06/09 10:14:27;;;;;;;4.68;2.55;;;;;;;19.10;100.00;99756.97;6268306;28;20060;-75
2023/06/09 10:17:28;;;;;;;3.22;2.00;;;;;;;19.23;100.00;99756.56;6272187;28;20147;-75
2023/06/09 10:20:29;;;;;;;2.67;2.00;;;;;;;19.12;100.00;99748.91;6270192;28;20566;-74
2023/06/09 10:23:31;;;;;;;5.30;1.90;;;;;;;19.04;100.00;99740.91;6271126;28;20107;-74
2023/06/09 10:26:32;;;;;;;2.88;1.88;;;;;;;18.86;100.00;99731.22;6271491;28;20140;-74
2023/06/09 10:29:34;;;;;;;3.85;1.98;;;;;;;18.78;100.00;99723.22;6271295;28;20048;-74
2023/06/09 10:32:52;;;;;;;2.67;2.03;;;;;;;18.86;100.00;99722.44;6271426;28;20136;-74
2023/06/09 10:35:57;;;;;;;2.53;2.00;;;;;;;18.91;100.00;99718.38;6276634;28;20063;-74
2023/06/09 10:39:13;;;;;;;2.10;1.90;;;;;;;18.99;100.00;99711.47;6268436;28;20059;-74
2023/06/09 10:42:25;;;;;;;5.47;2.10;;;;;;;18.95;100.00;99710.97;6266392;28;20447;-74
2023/06/09 10:45:50;;;;;;;2.67;1.88;;;;;;;18.88;100.00;99708.13;6270058;28;20560;-74
2023/06/09 10:48:51;;;;;;;2.92;1.88;;;;;;;18.85;100.00;99707.59;6263398;28;20084;-74
2023/06/09 10:51:54;;;;;;;2.63;1.90;;;;;;;18.82;100.00;99707.88;6263435;28;20041;-74
2023/06/09 10:55:15;;;;;;;2.60;1.85;;;;;;;18.77;100.00;99708.31;6269906;28;20045;-75
2023/06/09 10:58:36;;;;;;;3.92;2.03;;;;;;;18.60;100.00;99699.47;6268847;28;20049;-75
2023/06/09 11:02:03;;;;;;;3.72;2.25;;;;;;;18.73;100.00;99699.88;6266855;28;20079;-75
2023/06/09 11:05:04;;;;;;;4.82;2.00;;;;;;;18.78;100.00;99693.28;6258744;28;20057;-75
2023/06/09 11:08:07;;;;;;;4.43;1.88;;;;;;;18.81;100.00;99693.03;6260128;28;20053;-75
2023/06/09 11:11:15;;;;;;;2.08;1.88;;;;;;;18.90;100.00;99676.22;6259802;28;20517;-74
2023/06/09 11:14:43;;;;;;;3.92;2.70;;;;;;;19.30;100.00;99680.88;6245564;28;20126;-74
2023/06/09 11:17:46;;;;;;;3.78;2.67;;;;;;;19.72;100.00;99676.59;6246671;28;20049;-73
2023/06/09 11:34:49;;;;;;;3.75;2.75;;;;;;;22.06;100.00;99670.28;6404109;27;20385;-71
2023/06/09 11:37:51;;;;;;;3.80;2.78;;;;;;;22.12;100.00;99669.56;6381900;27;20054;-72
2023/06/09 11:40:52;;;;;;;4.05;1.90;;;;;;;22.16;100.00;99670.03;6392809;27;20051;-73
2023/06/09 11:43:55;;;;;;;3.05;2.47;;;;;;;22.92;100.00;99675.38;6373734;27;20063;-71
2023/06/09 11:46:55;;;;;;;6.20;2.70;;;;;;;23.43;100.00;99669.28;6361370;27;20781;-72
2023/06/09 11:50:16;;;;;;;3.67;2.73;;;;;;;23.53;100.00;99662.69;6358461;28;20043;-72
2023/06/09 11:53:18;;;;;;;3.00;2.25;;;;;;;23.91;100.00;99656.34;6379011;27;20050;-71
2023/06/09 11:56:21;;;;;;;4.20;2.05;;;;;;;23.48;100.00;99651.75;6372305;27;20152;-72
2023/06/09 11:59:22;;;;;;;4.72;2.42;;;;;;;23.56;100.00;99650.00;6393725;27;20043;-72
2023/06/09 12:02:25;;;;;;;3.07;2.33;;;;;;;24.17;100.00;99628.25;6394594;27;20478;-71
2023/06/09 12:05:29;;;;;;;3.00;2.25;;;;;;;24.72;100.00;99631.97;6391589;27;20287;-72
2023/06/09 12:08:30;;;;;;;3.28;1.92;;;;;;;24.96;98.83;99633.34;6394729;27;20051;-72
2023/06/09 12:11:30;;;;;;;2.67;2.27;;;;;;;24.77;95.93;99631.38;6386902;27;20047;-72
2023/06/09 12:14:32;;;;;;;2.77;2.43;;;;;;;24.39;100.00;99621.88;6389234;27;20310;-72
2023/06/09 12:17:32;;;;;;;4.38;2.30;;;;;;;25.08;100.00;99614.91;6361986;27;20081;-72
2023/06/09 12:20:37;;;;;;;2.43;2.00;;;;;;;24.47;91.85;99618.25;6348080;28;20055;-72
2023/06/09 12:23:38;;;;;;;2.70;1.90;;;;;;;24.72;89.62;99622.13;6369168;27;20081;-72
2023/06/09 12:26:44;;;;;;;2.47;1.90;;;;;;;25.02;93.31;99618.38;6413032;27;20051;-71
2023/06/09 12:29:47;;;;;;;3.47;2.33;;;;;;;24.79;94.68;99614.19;6367110;28;20053;-71
2023/06/09 12:32:48;;;;;;;3.25;2.03;;;;;;;24.82;93.26;99610.28;6366224;27;20076;-71
2023/06/09 12:35:55;;;;;;;2.53;1.87;;;;;;;24.55;96.37;99598.66;6373173;27;20080;-71
2023/06/09 12:38:56;;;;;;;2.45;1.95;;;;;;;23.48;91.56;99608.31;6360963;27;20054;-70
2023/06/09 12:41:57;;;;;;;2.20;1.77;;;;;;;23.30;99.15;99603.41;6345396;28;20415;-70
2023/06/09 12:44:57;;;;;;;2.73;1.97;;;;;;;23.09;94.34;99598.88;6335079;28;20059;-70
2023/06/09 12:48:05;;;;;;;2.30;2.10;;;;;;;23.25;99.27;99603.97;6341314;27;20120;-70
2023/06/09 12:51:06;;;;;;;2.92;2.22;;;;;;;24.25;98.03;99604.94;6376437;27;20122;-70
2023/06/09 12:54:10;;;;;;;4.15;2.20;;;;;;;24.23;98.04;99590.19;6375242;27;20054;-70
2023/06/09 12:57:11;;;;;;;2.67;2.25;;;;;;;23.89;100.00;99594.44;6376170;27;20395;-70
2023/06/09 13:11:27;;;;;;;3.20;1.90;;;;;;;22.08;95.77;99579.78;6394180;27;20384;-72
2023/06/09 13:14:30;;;;;;;2.40;2.13;;;;;;;21.86;98.68;99576.13;6394451;27;20488;-71
2023/06/09 13:17:31;;;;;;;3.30;2.40;;;;;;;21.55;100.00;99584.19;6392102;27;20458;-73
2023/06/09 13:20:31;;;;;;;2.60;2.37;;;;;;;20.97;100.00;99581.78;6398124;27;20102;-72
2023/06/09 13:23:32;;;;;;;3.63;2.40;;;;;;;20.86;100.00;99587.50;6419606;27;20046;-72
2023/06/09 13:26:35;;;;;;;3.77;2.60;;;;;;;20.83;100.00;99578.03;6419513;27;20058;-72
2023/06/09 13:29:36;;;;;;;5.20;2.90;;;;;;;20.80;100.00;99583.69;6418143;27;20045;-72
2023/06/09 13:32:37;;;;;;;5.17;2.97;;;;;;;20.80;100.00;99582.88;6417749;27;20042;-72
2023/06/09 13:35:42;;;;;;;3.85;2.67;;;;;;;20.80;100.00;99588.19;6416542;27;20043;-71
2023/06/09 13:38:43;;;;;;;2.70;2.30;;;;;;;20.50;100.00;99601.94;6402207;27;20103;-71
2023/06/09 13:41:44;;;;;;;3.90;2.57;;;;;;;20.61;100.00;99618.53;6403782;27;20107;-71
2023/06/09 13:44:45;;;;;;;3.20;2.40;;;;;;;20.72;100.00;99628.78;6401106;27;20054;-71
2023/06/09 13:47:46;;;;;;;3.50;2.60;;;;;;;20.64;100.00;99626.97;6393227;27;20047;-71
2023/06/09 13:50:46;;;;;;;3.77;2.60;;;;;;;20.49;100.00;99626.00;6394855;27;20050;-71
2023/06/09 13:53:47;;;;;;;3.07;2.57;;;;;;;20.43;100.00;99626.66;6394180;27;20069;-71
2023/06/09 13:56:48;;;;;;;7.73;2.80;;;;;;;20.20;100.00;99619.38;6404368;27;20504;-72
2023/06/09 13:59:51;;;;;;;5.23;2.90;;;;;;;20.13;100.00;99623.69;6417612;27;20078;-72
2023/06/09 14:02:52;;;;;;;5.10;2.92;;;;;;;20.11;100.00;99621.19;6416526;27;20417;-73
2023/06/09 14:05:52;;;;;;;3.30;2.83;;;;;;;20.24;100.00;99620.72;6404455;27;20134;-75
2023/06/09 14:08:53;;;;;;;3.80;2.77;;;;;;;20.25;100.00;99621.53;6382755;27;20043;-74
2023/06/09 14:11:54;;;;;;;5.70;3.33;;;;;;;20.20;100.00;99603.50;6377753;27;20058;-72
2023/06/09 14:14:55;;;;;;;5.13;3.47;;;;;;;20.32;100.00;99610.13;6375097;27;20055;-74
2023/06/09 14:17:57;;;;;;;4.00;3.03;;;;;;;20.36;100.00;99601.81;6376105;27;20099;-74
2023/06/09 14:20:57;;;;;;;3.92;2.97;;;;;;;20.40;100.00;99603.94;6381359;27;20466;-74
2023/06/09 14:23:58;;;;;;;4.67;2.70;;;;;;;20.48;100.00;99595.16;6384814;27;20049;-74
2023/06/09 14:27:00;;;;;;;2.80;2.50;;;;;;;20.67;100.00;99600.13;6392489;27;20047;-74
2023/06/09 14:30:01;;;;;;;5.03;2.75;;;;;;;20.90;100.00;99584.31;6375619;27;20417;-72
2023/06/09 14:33:02;;;;;;;4.23;2.67;;;;;;;21.18;100.00;99589.16;6373638;27;20051;-71
2023/06/09 14:36:03;;;;;;;4.07;2.90;;;;;;;21.32;100.00;99576.97;6368011;27;20099;-71
2023/06/09 14:39:03;;;;;;;3.90;2.93;;;;;;;21.73;100.00;99563.47;6369620;27;20083;-73
2023/06/09 14:42:04;;;;;;;3.40;2.27;;;;;;;22.03;100.00;99568.84;6364402;27;20070;-73
2023/06/09 14:45:08;;;;;;;4.65;2.58;;;;;;;22.05;100.00;99567.69;6379265;27;20138;-72
2023/06/09 14:48:09;;;;;;;3.38;2.25;;;;;;;22.00;100.00;99564.72;6347799;28;20486;-72
2023/06/09 14:51:10;;;;;;;3.50;2.20;;;;;;;21.90;100.00;99557.00;6346922;28;20074;-73